Austin, Utah
Current Conditions -  °F | °C
As of 6:52 PM on Saturday 25 Oct 2014 (Local Time) from KMLF Reporting Station
Clear Clear  
Wind Chill: 67°   Ceiling: Unl
Heat Index: 67°   Visibility: 10mi
Dew Point: 39°   Wind: 21mph
Humidity: 36%   Direction: 200°SSW
Pressure: 30.02"   Gusts: NA
Location:  38.6125°N, 112.081°W
Report Text: KMLF 260052Z AUTO 20018KT 10SM CLR 19/04 A3002 RMK AO2 PK WND 21034/2355 SLP131 T01940039 TSNO
Loading
Personal Weather Stations






























Interactive Weather Map
Tropical Storm Tracking
New forecast layout! Learn more

10-Day Weather Forecast

Advertisements
Track Severe Weather on mobile